createdAt,value
2019-05-11T00:01:41.814Z,99492.98
2019-05-11T00:04:11.910Z,99477.35
2019-05-11T00:06:41.880Z,99480.80
2019-05-11T00:09:11.931Z,99475.06
2019-05-11T00:11:41.906Z,99478.45
2019-05-11T00:14:11.899Z,99480.52
2019-05-11T00:16:41.920Z,99482.17
2019-05-11T00:19:11.900Z,99481.80
2019-05-11T00:21:41.892Z,99491.02
2019-05-11T00:24:11.897Z,99485.05
2019-05-11T00:26:41.885Z,99480.70
2019-05-11T00:29:11.894Z,99481.97
2019-05-11T00:31:41.894Z,99487.67
2019-05-11T00:34:11.947Z,99486.52
2019-05-11T00:36:41.991Z,99483.47
2019-05-11T00:39:12.005Z,99486.09
2019-05-11T00:41:41.974Z,99490.45
2019-05-11T00:44:12.010Z,99492.37
2019-05-11T00:46:41.967Z,99490.45
2019-05-11T00:49:12.009Z,99491.14
2019-05-11T00:51:41.999Z,99490.40
2019-05-11T00:54:12.040Z,99489.38
2019-05-11T00:56:42.028Z,99487.95
2019-05-11T00:59:21.541Z,99489.62
2019-05-11T01:01:43.754Z,99494.52
2019-05-11T01:04:13.911Z,99486.95
2019-05-11T01:06:43.977Z,99491.05
2019-05-11T01:09:15.024Z,99492.25
2019-05-11T01:11:45.157Z,99500.84
2019-05-11T01:14:15.130Z,99493.34
2019-05-11T01:16:45.116Z,99493.97
2019-05-11T01:19:15.120Z,99499.15
2019-05-11T01:21:45.153Z,99498.52
2019-05-11T01:24:15.124Z,99499.53
2019-05-11T01:26:45.159Z,99501.83
2019-05-11T01:29:15.137Z,99506.47
2019-05-11T01:31:45.112Z,99493.27
2019-05-11T01:34:15.201Z,99502.61
2019-05-11T01:36:45.169Z,99506.45
2019-05-11T01:39:15.261Z,99507.53
2019-05-11T01:41:45.249Z,99511.80
2019-05-11T01:44:15.270Z,99506.98
2019-05-11T01:46:45.309Z,99512.72
2019-05-11T01:49:15.347Z,99514.94
2019-05-11T01:51:45.316Z,99509.00
2019-05-11T01:54:15.310Z,99515.98
2019-05-11T01:56:45.564Z,99510.52
2019-05-11T01:59:15.556Z,99520.86
2019-05-11T02:01:45.776Z,99527.56
2019-05-11T02:04:15.746Z,99529.59
2019-05-11T02:06:45.770Z,99530.19
2019-05-11T02:09:15.795Z,99525.50
2019-05-11T02:11:45.796Z,99522.23
2019-05-11T02:14:15.792Z,99520.04
2019-05-11T02:16:45.788Z,99526.54
2019-05-11T02:19:15.754Z,99524.94
2019-05-11T02:21:45.750Z,99521.05
2019-05-11T02:24:15.762Z,99527.18
2019-05-11T02:26:45.730Z,99524.39
2019-05-11T02:29:15.772Z,99529.48
2019-05-11T02:31:45.770Z,99535.45
2019-05-11T02:34:15.754Z,99528.49
2019-05-11T02:36:46.707Z,99532.52
2019-05-11T02:39:16.700Z,99531.00
2019-05-11T02:41:46.800Z,99540.27
2019-05-11T02:44:16.776Z,99537.01
2019-05-11T02:46:46.754Z,99540.04
2019-05-11T02:49:17.827Z,99544.94
2019-05-11T02:51:47.903Z,99544.33
2019-05-11T02:54:18.354Z,99541.72
2019-05-11T02:56:48.388Z,99546.61
2019-05-11T02:59:18.437Z,99546.41
2019-05-11T03:01:48.402Z,99549.63
2019-05-11T03:04:18.405Z,99553.33
2019-05-11T03:06:48.402Z,99553.52
2019-05-11T03:09:18.412Z,99552.25
2019-05-11T03:11:55.835Z,99557.39
2019-05-11T03:14:20.112Z,99556.51
2019-05-11T03:16:51.761Z,99560.45
2019-05-11T03:19:21.783Z,99560.29
2019-05-11T03:21:51.759Z,99566.50
2019-05-11T03:24:24.047Z,99562.72
2019-05-11T03:26:53.419Z,99562.16
2019-05-11T03:29:23.402Z,99566.73
2019-05-11T03:31:53.435Z,99567.41
2019-05-11T03:34:24.390Z,99568.61
2019-05-11T03:36:54.416Z,99569.75
2019-05-11T03:39:24.483Z,99564.38
2019-05-11T03:42:12.924Z,99573.89
2019-05-11T03:44:26.180Z,99578.36
2019-05-11T03:46:56.168Z,99578.80
2019-05-11T03:49:26.207Z,99576.81
2019-05-11T03:51:56.180Z,99581.94
2019-05-11T03:54:26.236Z,99578.88
2019-05-11T03:56:56.269Z,99583.41
2019-05-11T03:59:26.238Z,99579.59
2019-05-11T04:01:56.287Z,99582.37
2019-05-11T04:04:26.269Z,99578.40
2019-05-11T04:06:56.277Z,99584.13
2019-05-11T04:09:26.268Z,99587.39
2019-05-11T04:11:56.273Z,99582.23
2019-05-11T04:14:26.250Z,99585.05
2019-05-11T04:16:56.272Z,99589.62
2019-05-11T04:19:26.242Z,99591.13
2019-05-11T04:21:56.289Z,99594.88
2019-05-11T04:24:26.274Z,99600.33
2019-05-11T04:26:56.259Z,99602.64
2019-05-11T04:29:26.316Z,99608.61
2019-05-11T04:31:56.304Z,99608.77
2019-05-11T04:34:26.352Z,99605.94
2019-05-11T04:36:56.332Z,99608.73
2019-05-11T04:39:26.415Z,99604.83
2019-05-11T04:41:56.404Z,99607.69
2019-05-11T04:44:26.385Z,99609.89
2019-05-11T04:46:56.393Z,99618.00
2019-05-11T04:49:26.374Z,99618.64
2019-05-11T04:51:56.433Z,99619.60
2019-05-11T04:54:26.406Z,99622.19
2019-05-11T04:56:56.431Z,99628.31
2019-05-11T04:59:26.494Z,99627.75
2019-05-11T05:01:56.506Z,99634.13
2019-05-11T05:04:26.479Z,99633.25
2019-05-11T05:07:00.016Z,99630.98
2019-05-11T05:09:28.301Z,99637.55
2019-05-11T05:11:58.332Z,99637.80
2019-05-11T05:14:28.313Z,99633.30
2019-05-11T05:16:58.311Z,99634.69
2019-05-11T05:19:28.296Z,99644.16
2019-05-11T05:21:58.284Z,99643.73
2019-05-11T05:24:28.275Z,99648.14
2019-05-11T05:26:58.273Z,99642.73
2019-05-11T05:29:28.328Z,99651.48
2019-05-11T05:31:58.296Z,99656.66
2019-05-11T05:34:28.322Z,99660.49
2019-05-11T05:36:58.314Z,99661.12
2019-05-11T05:39:28.354Z,99661.40
2019-05-11T05:41:58.322Z,99667.45
2019-05-11T05:44:28.406Z,99663.19
2019-05-11T05:46:58.374Z,99671.00
2019-05-11T05:49:28.370Z,99671.76
2019-05-11T05:51:58.757Z,99673.31
2019-05-11T05:54:28.790Z,99678.00
2019-05-11T05:56:58.760Z,99678.03
2019-05-11T05:59:28.761Z,99682.11
2019-05-11T06:01:58.768Z,99680.40
2019-05-11T06:04:28.731Z,99684.38
2019-05-11T06:06:58.711Z,99695.38
2019-05-11T06:09:28.707Z,99700.63
2019-05-11T06:11:58.749Z,99693.58
2019-05-11T06:14:28.736Z,99703.30
2019-05-11T06:16:58.732Z,99707.03
2019-05-11T06:19:28.801Z,99706.36
2019-05-11T06:21:58.824Z,99712.30
2019-05-11T06:24:28.803Z,99714.66
2019-05-11T06:26:58.859Z,99717.52
2019-05-11T06:29:28.850Z,99720.66
2019-05-11T06:31:58.879Z,99727.67
2019-05-11T06:34:28.856Z,99737.23
2019-05-11T06:36:58.935Z,99729.59
2019-05-11T06:39:28.910Z,99734.14
2019-05-11T06:41:59.001Z,99733.78
2019-05-11T06:44:28.979Z,99743.02
2019-05-11T06:46:58.983Z,99741.03
2019-05-11T06:49:28.952Z,99737.20
2019-05-11T06:51:59.408Z,99741.50
2019-05-11T06:54:29.383Z,99748.36
2019-05-11T06:56:59.360Z,99749.39
2019-05-11T06:59:29.366Z,99750.44
2019-05-11T07:01:59.419Z,99750.66
2019-05-11T07:04:29.399Z,99754.77
2019-05-11T07:07:00.379Z,99758.83
2019-05-11T07:09:30.358Z,99764.77
2019-05-11T07:12:00.555Z,99764.39
2019-05-11T07:14:30.609Z,99766.92
2019-05-11T07:17:00.598Z,99764.56
2019-05-11T07:19:30.624Z,99769.14
2019-05-11T07:22:00.598Z,99769.95
2019-05-11T07:24:30.593Z,99772.53
2019-05-11T07:27:00.656Z,99774.06
2019-05-11T07:29:30.635Z,99777.36
2019-05-11T07:32:06.261Z,99781.47
2019-05-11T07:34:32.398Z,99776.36
2019-05-11T07:37:03.509Z,99782.22
2019-05-11T07:39:33.504Z,99781.59
2019-05-11T07:42:03.558Z,99785.41
2019-05-11T07:44:37.880Z,99787.77
2019-05-11T07:47:05.334Z,99797.25
2019-05-11T07:49:35.313Z,99797.77
2019-05-11T07:52:07.630Z,99803.30
2019-05-11T07:54:38.556Z,99807.41
2019-05-11T07:57:08.724Z,99805.46
2019-05-11T07:59:38.736Z,99811.13
2019-05-11T08:02:09.022Z,99801.28
2019-05-11T08:04:39.053Z,99810.05
2019-05-11T08:07:09.026Z,99815.98
2019-05-11T08:09:39.019Z,99812.00
2019-05-11T08:12:09.119Z,99818.94
2019-05-11T08:14:55.775Z,99823.55
2019-05-11T08:17:10.733Z,99828.70
2019-05-11T08:19:40.897Z,99829.81
2019-05-11T08:22:10.862Z,99829.48
2019-05-11T08:24:40.835Z,99830.47
2019-05-11T08:27:10.825Z,99828.05
2019-05-11T08:29:40.802Z,99835.84
2019-05-11T08:32:10.790Z,99841.65
2019-05-11T08:34:40.837Z,99841.11
2019-05-11T08:37:10.990Z,99845.92
2019-05-11T08:39:40.978Z,99842.20
2019-05-11T08:42:10.972Z,99847.18
2019-05-11T08:44:40.930Z,99843.69
2019-05-11T08:47:10.908Z,99846.19
2019-05-11T08:49:40.908Z,99843.88
2019-05-11T08:52:10.932Z,99841.09
2019-05-11T08:54:40.968Z,99844.86
2019-05-11T08:57:11.012Z,99847.78
2019-05-11T08:59:41.008Z,99845.67
2019-05-11T09:02:11.050Z,99849.27
2019-05-11T09:04:42.024Z,99854.70
2019-05-11T09:07:12.242Z,99858.78
2019-05-11T09:09:42.228Z,99855.83
2019-05-11T09:12:12.232Z,99857.64
2019-05-11T09:14:42.280Z,99861.17
2019-05-11T09:17:12.317Z,99857.17
2019-05-11T09:19:42.292Z,99859.83
2019-05-11T09:22:12.282Z,99862.48
2019-05-11T09:24:42.349Z,99864.44
2019-05-11T09:27:12.340Z,99864.16
2019-05-11T09:29:42.333Z,99872.05
2019-05-11T09:32:12.375Z,99870.25
2019-05-11T09:34:42.370Z,99877.28
2019-05-11T09:37:12.359Z,99880.13
2019-05-11T09:39:42.324Z,99882.54
2019-05-11T09:42:12.514Z,99884.09
2019-05-11T09:44:42.504Z,99891.97
2019-05-11T09:47:12.608Z,99897.09
2019-05-11T09:49:47.643Z,99895.77
2019-05-11T09:52:14.273Z,99901.95
2019-05-11T09:54:44.316Z,99899.29
2019-05-11T09:57:14.356Z,99907.50
2019-05-11T09:59:44.424Z,99908.86
2019-05-11T10:02:17.763Z,99904.02
2019-05-11T10:04:48.289Z,99904.91
2019-05-11T10:07:18.234Z,99904.24
2019-05-11T10:09:48.422Z,99894.37
2019-05-11T10:12:18.420Z,99893.56
2019-05-11T10:14:48.693Z,99892.00
2019-05-11T10:17:18.859Z,99901.27
2019-05-11T10:19:49.721Z,99900.82
2019-05-11T10:22:19.934Z,99901.94
2019-05-11T10:24:49.918Z,99904.16
2019-05-11T10:27:19.964Z,99899.37
2019-05-11T10:29:49.946Z,99897.84
2019-05-11T10:32:19.920Z,99902.55
2019-05-11T10:34:49.903Z,99904.70
2019-05-11T10:37:19.910Z,99893.67
2019-05-11T10:39:49.888Z,99906.84
2019-05-11T10:42:19.883Z,99899.12
2019-05-11T10:44:49.874Z,99898.78
2019-05-11T10:47:19.853Z,99895.81
2019-05-11T10:49:49.842Z,99908.42
2019-05-11T10:52:19.945Z,99903.34
2019-05-11T10:54:49.929Z,99905.28
2019-05-11T10:57:19.907Z,99906.02
2019-05-11T10:59:51.564Z,99896.31
2019-05-11T11:02:21.630Z,99899.06
2019-05-11T11:04:51.697Z,99905.52
2019-05-11T11:07:21.835Z,99904.63
2019-05-11T11:09:51.885Z,99912.55
2019-05-11T11:12:21.855Z,99912.06
2019-05-11T11:14:51.897Z,99917.47
2019-05-11T11:17:21.950Z,99916.96
2019-05-11T11:19:51.957Z,99919.41
2019-05-11T11:22:35.740Z,99923.34
2019-05-11T11:24:53.788Z,99923.23
2019-05-11T11:27:23.807Z,99925.52
2019-05-11T11:29:53.813Z,99920.69
2019-05-11T11:32:23.845Z,99921.76
2019-05-11T11:34:53.897Z,99925.55
2019-05-11T11:37:23.962Z,99919.77
2019-05-11T11:39:53.947Z,99928.78
2019-05-11T11:42:23.973Z,99930.93
2019-05-11T11:44:53.962Z,99923.60
2019-05-11T11:47:24.009Z,99922.03
2019-05-11T11:49:53.995Z,99926.91
2019-05-11T11:52:24.032Z,99928.01
2019-05-11T11:54:54.006Z,99933.20
2019-05-11T11:57:24.000Z,99922.00
2019-05-11T11:59:53.988Z,99919.09
2019-05-11T12:02:24.000Z,99927.61
2019-05-11T12:04:53.986Z,99920.33
2019-05-11T12:07:24.041Z,99926.70
2019-05-11T12:09:54.072Z,99922.28
2019-05-11T12:12:24.050Z,99928.56
2019-05-11T12:14:58.315Z,99929.66
2019-05-11T12:17:28.567Z,99920.33
2019-05-11T12:19:58.756Z,99924.96
2019-05-11T12:22:28.735Z,99925.59
2019-05-11T12:24:59.055Z,99934.02
2019-05-11T12:27:29.087Z,99935.62
2019-05-11T12:29:59.090Z,99935.70
2019-05-11T12:32:33.162Z,99927.93
2019-05-11T12:35:03.656Z,99929.52
2019-05-11T12:37:33.636Z,99931.03
2019-05-11T12:40:05.081Z,99934.61
2019-05-11T12:42:35.051Z,99935.28
2019-05-11T12:45:08.426Z,99943.48
2019-05-11T12:47:38.663Z,99937.60
2019-05-11T12:50:09.273Z,99943.05
2019-05-11T12:52:39.260Z,99946.78
2019-05-11T12:55:09.573Z,99952.64
2019-05-11T12:57:39.649Z,99955.49
2019-05-11T13:00:10.184Z,99956.52
2019-05-11T13:02:40.149Z,99959.45
2019-05-11T13:05:10.385Z,99960.23
2019-05-11T13:07:41.541Z,99963.02
2019-05-11T13:10:11.686Z,99962.09
2019-05-11T13:12:41.676Z,99967.44
2019-05-11T13:15:12.214Z,99966.12
2019-05-11T13:17:42.200Z,99964.75
2019-05-11T13:20:13.424Z,99971.31
2019-05-11T13:22:43.395Z,99968.19
2019-05-11T13:25:13.495Z,99972.06
2019-05-11T13:27:43.564Z,99975.70
2019-05-11T13:30:14.052Z,99977.82
2019-05-11T13:32:45.678Z,99977.23
2019-05-11T13:35:17.785Z,99984.65
2019-05-11T13:37:48.060Z,99987.33
2019-05-11T13:40:18.809Z,99990.77
2019-05-11T13:42:49.307Z,99985.52
2019-05-11T13:45:19.427Z,99997.75
2019-05-11T13:47:55.552Z,99999.41
2019-05-11T13:50:21.120Z,100004.27
2019-05-11T13:52:51.141Z,100008.86
2019-05-11T13:55:21.121Z,100007.04
2019-05-11T13:57:51.154Z,100010.64
2019-05-11T14:00:21.139Z,100010.84
2019-05-11T14:02:51.151Z,100009.23
2019-05-11T14:05:21.156Z,100016.37
2019-05-11T14:07:51.214Z,100011.05
2019-05-11T14:10:21.196Z,100015.86
2019-05-11T14:12:51.196Z,100009.95
2019-05-11T14:15:21.178Z,100010.44
2019-05-11T14:18:04.681Z,100014.86
2019-05-11T14:20:23.056Z,100026.16
2019-05-11T14:22:53.120Z,100025.92
2019-05-11T14:25:23.107Z,100021.53
2019-05-11T14:27:53.108Z,100023.15
2019-05-11T14:30:23.174Z,100024.28
2019-05-11T14:32:53.148Z,100034.02
2019-05-11T14:35:23.169Z,100037.23
2019-05-11T14:37:53.165Z,100037.63
2019-05-11T14:40:23.209Z,100034.50
2019-05-11T14:42:53.209Z,100030.63
2019-05-11T14:45:23.314Z,100036.67
2019-05-11T14:47:53.354Z,100043.00
2019-05-11T14:50:23.349Z,100052.45
2019-05-11T14:52:53.491Z,100043.53
2019-05-11T14:55:23.483Z,100053.34
2019-05-11T14:57:53.576Z,100054.76
2019-05-11T15:00:24.134Z,100054.39
2019-05-11T15:02:54.264Z,100054.67
2019-05-11T15:05:24.343Z,100061.73
2019-05-11T15:07:54.395Z,100068.61
2019-05-11T15:10:24.491Z,100079.89
2019-05-11T15:12:54.493Z,100077.92
2019-05-11T15:15:24.701Z,100081.25
2019-05-11T15:17:54.740Z,100086.35
2019-05-11T15:20:24.748Z,100088.70
2019-05-11T15:22:54.848Z,100090.50
2019-05-11T15:25:24.935Z,100095.66
2019-05-11T15:27:54.937Z,100100.18
2019-05-11T15:30:25.006Z,100106.91
2019-05-11T15:32:55.131Z,100111.67
2019-05-11T15:35:25.241Z,100118.07
2019-05-11T15:37:55.278Z,100118.09
2019-05-11T15:40:27.659Z,100122.86
2019-05-11T15:42:58.586Z,100112.30
2019-05-11T15:45:28.849Z,100131.59
2019-05-11T15:47:59.174Z,100138.91
2019-05-11T15:50:29.348Z,100148.72
2019-05-11T15:52:59.387Z,100149.11
2019-05-11T15:55:29.416Z,100150.30
2019-05-11T15:57:59.498Z,100152.62
2019-05-11T16:00:29.568Z,100153.81
2019-05-11T16:02:59.640Z,100144.05
2019-05-11T16:05:29.643Z,100149.88
2019-05-11T16:08:01.746Z,100147.70
2019-05-11T16:10:31.339Z,100151.00
2019-05-11T16:13:01.453Z,100156.69
2019-05-11T16:15:31.517Z,100150.39
2019-05-11T16:18:01.573Z,100156.28
2019-05-11T16:20:31.551Z,100156.36
2019-05-11T16:23:01.635Z,100162.95
2019-05-11T16:25:31.640Z,100164.03
2019-05-11T16:28:01.697Z,100171.31
2019-05-11T16:30:31.714Z,100174.77
2019-05-11T16:33:01.720Z,100172.23
2019-05-11T16:35:31.698Z,100168.95
2019-05-11T16:38:01.720Z,100177.13
2019-05-11T16:40:31.717Z,100171.58
2019-05-11T16:43:01.746Z,100190.83
2019-05-11T16:45:31.743Z,100174.84
2019-05-11T16:48:01.793Z,100177.11
2019-05-11T16:50:31.789Z,100177.59
2019-05-11T16:53:02.084Z,100183.21
2019-05-11T16:55:32.080Z,100181.86
2019-05-11T16:58:02.102Z,100187.08
2019-05-11T17:00:33.189Z,100195.76
2019-05-11T17:03:03.178Z,100202.09
2019-05-11T17:05:33.908Z,100198.78
2019-05-11T17:08:04.153Z,100205.70
2019-05-11T17:10:34.222Z,100211.16
2019-05-11T17:13:04.212Z,100210.94
2019-05-11T17:15:35.191Z,100210.16
2019-05-11T17:18:05.200Z,100218.77
2019-05-11T17:20:35.215Z,100217.62
2019-05-11T17:23:05.257Z,100215.07
2019-05-11T17:25:35.298Z,100221.21
2019-05-11T17:28:09.251Z,100233.30
2019-05-11T17:30:38.613Z,100234.52
2019-05-11T17:33:08.921Z,100245.13
2019-05-11T17:35:38.941Z,100239.18
2019-05-11T17:38:08.951Z,100250.21
2019-05-11T17:40:38.947Z,100256.23
2019-05-11T17:43:09.264Z,100252.81
2019-05-11T17:45:39.339Z,100263.76
2019-05-11T17:48:09.340Z,100269.23
2019-05-11T17:50:39.386Z,100270.26
2019-05-11T17:53:09.387Z,100265.28
2019-05-11T17:55:45.512Z,100263.94
2019-05-11T17:58:18.281Z,100270.46
2019-05-11T18:00:48.063Z,100271.35
2019-05-11T18:03:18.342Z,100277.26
2019-05-11T18:05:48.814Z,100282.15
2019-05-11T18:08:18.892Z,100284.68
2019-05-11T18:10:48.905Z,100284.58
2019-05-11T18:13:18.907Z,100296.61
2019-05-11T18:15:49.401Z,100298.30
2019-05-11T18:18:19.565Z,100298.45
2019-05-11T18:20:49.554Z,100305.03
2019-05-11T18:23:19.574Z,100302.90
2019-05-11T18:25:49.587Z,100304.43
2019-05-11T18:28:19.577Z,100298.45
2019-05-11T18:30:49.635Z,100305.00
2019-05-11T18:33:19.704Z,100307.07
2019-05-11T18:35:49.679Z,100311.55
2019-05-11T18:38:19.744Z,100308.47
2019-05-11T18:40:49.752Z,100311.41
2019-05-11T18:43:19.761Z,100302.37
2019-05-11T18:45:50.862Z,100298.73
2019-05-11T18:48:20.860Z,100305.44
2019-05-11T18:50:50.841Z,100303.76
2019-05-11T18:53:20.850Z,100313.68
2019-05-11T18:55:51.920Z,100310.77
2019-05-11T18:58:21.907Z,100316.48
2019-05-11T19:00:51.962Z,100315.48
2019-05-11T19:03:21.955Z,100320.48
2019-05-11T19:05:51.971Z,100323.16
2019-05-11T19:08:22.002Z,100331.90
2019-05-11T19:10:51.988Z,100324.67
2019-05-11T19:13:22.024Z,100331.06
2019-05-11T19:15:53.084Z,100321.63
2019-05-11T19:18:23.084Z,100331.78
2019-05-11T19:20:53.066Z,100335.03
2019-05-11T19:23:23.194Z,100335.73
2019-05-11T19:25:53.218Z,100340.09
2019-05-11T19:28:23.275Z,100334.68
2019-05-11T19:30:53.322Z,100338.47
2019-05-11T19:33:23.315Z,100345.61
2019-05-11T19:35:53.422Z,100345.42
2019-05-11T19:38:23.442Z,100345.59
2019-05-11T19:40:53.509Z,100346.70
2019-05-11T19:43:23.578Z,100354.03
2019-05-11T19:45:53.633Z,100355.11
2019-05-11T19:48:23.693Z,100356.77
2019-05-11T19:51:04.581Z,100354.99
2019-05-11T19:53:27.938Z,100358.34
2019-05-11T19:55:58.409Z,100358.59
2019-05-11T19:58:29.026Z,100359.66
2019-05-11T20:00:59.148Z,100363.88
2019-05-11T20:03:29.127Z,100362.43
2019-05-11T20:05:59.549Z,100371.17
2019-05-11T20:08:29.702Z,100371.75
2019-05-11T20:10:59.679Z,100377.39
2019-05-11T20:13:29.729Z,100373.80
2019-05-11T20:15:59.703Z,100377.93
2019-05-11T20:18:29.706Z,100383.78
2019-05-11T20:20:59.711Z,100384.45
2019-05-11T20:23:29.688Z,100392.36
2019-05-11T20:25:59.680Z,100390.72
2019-05-11T20:28:29.687Z,100390.19
2019-05-11T20:30:59.681Z,100390.54
2019-05-11T20:33:29.680Z,100393.95
2019-05-11T20:35:59.743Z,100402.16
2019-05-11T20:38:29.811Z,100400.58
2019-05-11T20:40:59.810Z,100405.55
2019-05-11T20:43:29.893Z,100401.98
2019-05-11T20:45:59.877Z,100402.17
2019-05-11T20:48:30.004Z,100405.00
2019-05-11T20:50:59.987Z,100406.59
2019-05-11T20:53:29.992Z,100415.44
2019-05-11T20:56:00.029Z,100409.97
2019-05-11T20:58:31.660Z,100414.20
2019-05-11T21:01:01.782Z,100412.30
2019-05-11T21:03:31.902Z,100412.59
2019-05-11T21:06:01.904Z,100414.38
2019-05-11T21:08:31.926Z,100416.83
2019-05-11T21:11:01.906Z,100421.31
2019-05-11T21:13:31.923Z,100422.39
2019-05-11T21:16:01.969Z,100428.20
2019-05-11T21:18:32.006Z,100427.44
2019-05-11T21:21:02.070Z,100426.84
2019-05-11T21:23:33.631Z,100430.69
2019-05-11T21:26:04.707Z,100430.34
2019-05-11T21:28:34.769Z,100436.50
2019-05-11T21:31:04.765Z,100439.88
2019-05-11T21:33:34.827Z,100441.59
2019-05-11T21:36:04.851Z,100444.13
2019-05-11T21:38:34.835Z,100441.73
2019-05-11T21:41:05.038Z,100453.44
2019-05-11T21:43:35.028Z,100452.09
2019-05-11T21:46:05.096Z,100456.38
2019-05-11T21:48:35.144Z,100460.83
2019-05-11T21:51:05.132Z,100461.40
2019-05-11T21:53:35.197Z,100462.55
2019-05-11T21:56:05.197Z,100460.69
2019-05-11T21:58:35.248Z,100470.47
2019-05-11T22:01:07.133Z,100465.04
2019-05-11T22:03:38.289Z,100466.55
2019-05-11T22:06:08.664Z,100466.77
2019-05-11T22:08:39.790Z,100470.70
2019-05-11T22:11:09.856Z,100476.28
2019-05-11T22:13:39.891Z,100485.23
2019-05-11T22:16:09.935Z,100485.80
2019-05-11T22:18:39.926Z,100485.18
2019-05-11T22:21:09.926Z,100492.32
2019-05-11T22:23:39.901Z,100499.01
2019-05-11T22:26:09.906Z,100498.37
2019-05-11T22:28:39.888Z,100502.47
2019-05-11T22:31:09.924Z,100508.11
2019-05-11T22:33:40.008Z,100508.78
2019-05-11T22:36:10.024Z,100514.05
2019-05-11T22:38:40.008Z,100513.82
2019-05-11T22:41:11.075Z,100520.30
2019-05-11T22:43:41.064Z,100522.67
2019-05-11T22:46:11.047Z,100519.14
2019-05-11T22:48:41.041Z,100529.33
2019-05-11T22:51:11.175Z,100527.95
2019-05-11T22:53:46.751Z,100530.66
2019-05-11T22:56:13.034Z,100537.95
2019-05-11T22:58:43.039Z,100538.02
2019-05-11T23:01:13.045Z,100539.05
2019-05-11T23:03:43.082Z,100542.02
2019-05-11T23:06:13.055Z,100548.31
2019-05-11T23:08:43.070Z,100548.44
2019-05-11T23:11:13.037Z,100546.59
2019-05-11T23:13:43.039Z,100546.22
2019-05-11T23:16:13.525Z,100546.63
2019-05-11T23:18:43.515Z,100546.91
2019-05-11T23:21:13.567Z,100554.91
2019-05-11T23:23:43.570Z,100555.17
2019-05-11T23:26:13.690Z,100555.03
2019-05-11T23:28:43.674Z,100558.06
2019-05-11T23:31:13.682Z,100554.36
2019-05-11T23:33:43.776Z,100545.05
2019-05-11T23:36:13.821Z,100563.14
2019-05-11T23:38:43.899Z,100566.91
2019-05-11T23:41:24.392Z,100567.98
2019-05-11T23:43:47.648Z,100571.91
2019-05-11T23:46:17.657Z,100575.23
2019-05-11T23:48:48.730Z,100573.86
2019-05-11T23:51:19.822Z,100581.04
2019-05-11T23:53:50.867Z,100588.59
2019-05-11T23:56:20.872Z,100597.25
2019-05-11T23:58:50.876Z,100595.55
